Time;durP1;ratioP1;P1;durP2;ratioP2;P2;SDS_P1;SDS_P2;PMS_P1;PMS_P2;Temp;Humidity;BMP_temperature;BMP_pressure;BME280_temperature;BME280_humidity;BME280_pressure;Samples;Min_cycle;Max_cycle;Signal;HPM_P1;HPM_P2
2022/07/21 00:02:02;;;;;;;1123.20;999.90;;;26.20;99.00;;;;;;5021941;28;20921;-81
2022/07/21 00:04:29;;;;;;;1137.00;999.90;;;26.20;99.20;;;;;;5027716;28;21044;-82
2022/07/21 00:06:56;;;;;;;1119.53;999.90;;;26.10;99.30;;;;;;5035912;28;20818;-81
2022/07/21 00:09:22;;;;;;;1134.87;999.90;;;26.10;99.40;;;;;;5027833;28;20451;-81
2022/07/21 00:11:49;;;;;;;1129.70;999.90;;;26.10;99.60;;;;;;5048830;28;20419;-80
2022/07/21 00:14:17;;;;;;;1133.93;999.90;;;26.10;99.80;;;;;;5026067;28;20501;-78
2022/07/21 00:16:45;;;;;;;1128.53;999.90;;;26.10;99.90;;;;;;5029208;28;20465;-77
2022/07/21 00:19:12;;;;;;;1126.53;999.90;;;26.00;99.90;;;;;;5027328;28;20195;-80
2022/07/21 00:21:39;;;;;;;1125.13;999.90;;;26.00;99.90;;;;;;5017005;28;20463;-78
2022/07/21 00:24:07;;;;;;;1132.97;999.90;;;26.00;99.90;;;;;;5026689;28;20429;-78
2022/07/21 00:26:33;;;;;;;1125.47;999.90;;;25.90;99.90;;;;;;5032298;28;20873;-80
2022/07/21 00:29:00;;;;;;;1129.57;999.90;;;25.90;99.90;;;;;;5037731;28;20830;-77
2022/07/21 00:31:28;;;;;;;1111.33;999.90;;;25.90;99.90;;;;;;5027098;28;20430;-80
2022/07/21 00:33:55;;;;;;;1113.43;999.90;;;25.90;99.90;;;;;;5038779;28;20459;-79
2022/07/21 00:36:22;;;;;;;1112.57;999.90;;;25.90;99.90;;;;;;5044201;28;20443;-80
2022/07/21 00:38:49;;;;;;;1112.27;999.90;;;25.80;99.90;;;;;;5034419;28;20427;-79
2022/07/21 00:41:17;;;;;;;1125.40;999.90;;;25.80;99.90;;;;;;5026873;28;20448;-79
2022/07/21 00:43:43;;;;;;;1120.83;999.90;;;25.80;99.90;;;;;;5034990;28;20454;-79
2022/07/21 00:46:10;;;;;;;1113.30;999.90;;;25.70;99.90;;;;;;5029193;28;20962;-80
2022/07/21 00:48:38;;;;;;;1119.00;999.90;;;25.70;99.90;;;;;;5017140;28;20463;-79
2022/07/21 00:51:06;;;;;;;1102.17;999.90;;;25.70;99.90;;;;;;5041131;28;20957;-80
2022/07/21 00:53:33;;;;;;;1111.00;999.90;;;25.70;99.90;;;;;;5026522;28;20962;-78
2022/07/21 00:56:00;;;;;;;1112.68;999.90;;;25.70;99.90;;;;;;5039048;28;20199;-78
2022/07/21 00:58:27;;;;;;;1111.32;999.90;;;25.70;99.90;;;;;;5020650;28;20199;-79
2022/07/21 01:00:54;;;;;;;1110.95;999.90;;;25.60;99.90;;;;;;5015304;28;20666;-78
2022/07/21 01:03:21;;;;;;;1109.05;999.90;;;25.60;99.90;;;;;;5033689;28;20230;-79
2022/07/21 01:05:49;;;;;;;1104.80;999.90;;;25.60;99.90;;;;;;5024098;28;20188;-78
2022/07/21 01:08:16;;;;;;;1112.90;999.90;;;25.50;99.90;;;;;;5022493;28;20226;-79
2022/07/21 01:10:43;;;;;;;1105.15;999.90;;;25.50;99.90;;;;;;5018385;28;20203;-80
2022/07/21 01:13:10;;;;;;;1106.50;999.90;;;25.50;99.90;;;;;;5052737;28;20662;-78
2022/07/21 01:15:37;;;;;;;1111.87;999.90;;;25.50;99.90;;;;;;5038914;28;20200;-80
2022/07/21 01:18:04;;;;;;;1108.80;999.90;;;25.50;99.90;;;;;;5033426;28;20466;-78
2022/07/21 01:20:35;;;;;;;1097.97;998.85;;;25.50;99.90;;;;;;5012364;28;20207;-79
2022/07/21 01:23:03;;;;;;;1096.68;998.42;;;25.40;99.90;;;;;;5031315;28;20249;-79
2022/07/21 01:25:30;;;;;;;1101.53;999.72;;;25.40;99.90;;;;;;5028120;28;20208;-80
2022/07/21 01:27:57;;;;;;;1111.70;999.90;;;25.40;99.90;;;;;;5037097;28;20228;-78
2022/07/21 01:30:24;;;;;;;1101.65;999.90;;;25.40;99.90;;;;;;5029833;28;20208;-78
2022/07/21 01:32:51;;;;;;;1101.20;999.70;;;25.30;99.90;;;;;;5031083;28;20253;-80
2022/07/21 01:35:18;;;;;;;1101.65;999.90;;;25.30;99.90;;;;;;5018844;28;20204;-78
2022/07/21 01:37:47;;;;;;;1111.07;999.90;;;25.30;99.90;;;;;;5039633;28;20575;-78
2022/07/21 01:43:01;;;;;;;1092.18;997.10;;;25.30;99.90;;;;;;5040665;28;20199;-79
2022/07/21 01:45:28;;;;;;;1098.68;999.25;;;25.20;99.90;;;;;;5024152;28;20292;-78
2022/07/21 01:47:55;;;;;;;1092.07;997.28;;;25.20;99.90;;;;;;5032693;28;20224;-78
2022/07/21 01:50:26;;;;;;;1095.13;998.38;;;25.20;99.90;;;;;;5032191;28;20690;-78
2022/07/21 01:52:53;;;;;;;1091.82;996.97;;;25.20;99.90;;;;;;5047190;28;20199;-78
2022/07/21 01:55:21;;;;;;;1090.63;996.38;;;25.10;99.90;;;;;;5020484;28;20207;-79
2022/07/21 01:57:48;;;;;;;1095.60;999.20;;;25.10;99.90;;;;;;5011848;28;20204;-79
2022/07/21 02:00:15;;;;;;;1089.47;996.92;;;25.10;99.90;;;;;;5029586;28;20199;-78
2022/07/21 02:02:42;;;;;;;1101.13;999.90;;;25.10;99.90;;;;;;5026529;28;20227;-78
2022/07/21 02:05:09;;;;;;;1091.75;998.13;;;25.10;99.90;;;;;;5029289;28;20192;-79
2022/07/21 02:07:36;;;;;;;1092.07;997.08;;;25.10;99.90;;;;;;5036530;28;20306;-80
2022/07/21 02:10:03;;;;;;;1081.15;990.53;;;25.00;99.90;;;;;;5033733;28;20222;-78
2022/07/21 02:12:31;;;;;;;1085.22;993.33;;;25.00;99.90;;;;;;5021507;28;20216;-79
2022/07/21 02:14:58;;;;;;;1091.55;997.08;;;25.00;99.90;;;;;;5038401;28;20203;-79
2022/07/21 02:17:24;;;;;;;1089.70;996.15;;;25.00;99.90;;;;;;5030041;28;20196;-79
2022/07/21 02:19:51;;;;;;;1080.15;989.83;;;24.90;99.90;;;;;;5021526;28;20191;-79
2022/07/21 02:22:18;;;;;;;1084.50;992.85;;;24.90;99.90;;;;;;5024363;28;20215;-79
2022/07/21 02:24:45;;;;;;;1097.45;999.05;;;24.90;99.90;;;;;;5030756;28;20195;-79
2022/07/21 02:27:11;;;;;;;1086.63;994.60;;;24.90;99.90;;;;;;5027912;28;20227;-79
2022/07/21 02:29:39;;;;;;;1080.38;990.03;;;24.90;99.90;;;;;;5022726;28;20204;-79
2022/07/21 02:32:06;;;;;;;1077.55;987.22;;;24.80;99.90;;;;;;5037012;28;20406;-79
2022/07/21 02:34:33;;;;;;;1085.43;993.78;;;24.80;99.90;;;;;;5033690;28;20210;-78
2022/07/21 02:37:00;;;;;;;1081.95;990.95;;;24.80;99.90;;;;;;5018875;28;20203;-78
2022/07/21 02:39:27;;;;;;;1085.28;992.70;;;24.80;99.90;;;;;;5034201;28;20214;-78
2022/07/21 02:41:53;;;;;;;1074.88;984.60;;;24.80;99.90;;;;;;5020212;28;20199;-78
2022/07/21 02:44:20;;;;;;;1084.78;993.30;;;24.80;99.90;;;;;;5035776;28;20234;-78
2022/07/21 02:46:48;;;;;;;1065.30;975.58;;;24.70;99.90;;;;;;5031391;28;20559;-79
2022/07/21 02:49:15;;;;;;;1087.50;995.33;;;24.70;99.90;;;;;;5025711;28;21866;-79
2022/07/21 02:51:42;;;;;;;1080.93;990.55;;;24.70;99.90;;;;;;5037085;28;20214;-78
2022/07/21 02:54:08;;;;;;;1089.32;996.30;;;24.70;99.90;;;;;;5036486;28;20198;-78
2022/07/21 02:56:35;;;;;;;1077.50;987.22;;;24.60;99.90;;;;;;5017595;28;20204;-78
2022/07/21 02:59:02;;;;;;;1078.80;988.25;;;24.60;99.90;;;;;;5031058;28;20194;-80
2022/07/21 03:01:29;;;;;;;1085.38;993.78;;;24.60;99.90;;;;;;5026985;28;20199;-79
2022/07/21 03:03:57;;;;;;;1071.57;981.55;;;24.60;99.90;;;;;;5024874;28;20713;-79
2022/07/21 03:06:24;;;;;;;1090.82;997.20;;;24.60;99.90;;;;;;5038553;28;20210;-79
2022/07/21 03:08:50;;;;;;;1065.45;975.70;;;24.60;99.90;;;;;;5032621;28;20220;-79
2022/07/21 03:11:17;;;;;;;1075.32;985.08;;;24.50;99.90;;;;;;5040737;28;20206;-81
2022/07/21 03:13:44;;;;;;;1076.40;986.08;;;24.50;99.90;;;;;;5039415;28;20551;-79
2022/07/21 03:16:11;;;;;;;1073.18;982.90;;;24.50;99.90;;;;;;5011226;28;20211;-80
2022/07/21 03:18:37;;;;;;;1082.68;992.05;;;24.50;99.90;;;;;;5017043;28;20200;-80
2022/07/21 03:21:06;;;;;;;1068.00;978.25;;;24.50;99.90;;;;;;5041001;28;20647;-79
2022/07/21 03:23:32;;;;;;;1073.00;983.00;;;24.40;99.90;;;;;;5040204;28;20202;-79
2022/07/21 03:25:59;;;;;;;1067.63;977.88;;;24.40;99.90;;;;;;5011590;28;20296;-79
2022/07/21 03:28:26;;;;;;;1069.60;979.72;;;24.40;99.90;;;;;;5013739;28;20704;-79
2022/07/21 03:30:53;;;;;;;1072.50;982.45;;;24.40;99.90;;;;;;5028991;28;20201;-79
2022/07/21 03:33:19;;;;;;;1072.05;982.03;;;24.30;99.90;;;;;;5033676;28;20195;-78
2022/07/21 03:35:46;;;;;;;1079.10;988.90;;;24.30;99.90;;;;;;5052007;28;20199;-79
2022/07/21 03:38:14;;;;;;;1057.03;967.92;;;24.30;99.90;;;;;;5034122;28;20204;-79
2022/07/21 03:40:41;;;;;;;1056.05;966.65;;;24.30;99.90;;;;;;5022447;28;20208;-79
2022/07/21 03:43:08;;;;;;;1056.28;966.78;;;24.30;99.90;;;;;;5017722;28;20571;-78
2022/07/21 03:45:36;;;;;;;1061.32;971.55;;;24.30;99.90;;;;;;5033762;28;20192;-78
2022/07/21 03:48:05;;;;;;;1055.22;965.80;;;24.20;99.90;;;;;;5031437;28;20224;-78
2022/07/21 03:50:32;;;;;;;1079.82;989.17;;;24.20;99.90;;;;;;5019761;28;20196;-77
2022/07/21 03:52:59;;;;;;;1053.10;963.80;;;24.20;99.90;;;;;;5039139;28;20202;-79
2022/07/21 03:55:28;;;;;;;1062.55;973.03;;;24.20;99.90;;;;;;5038574;28;20207;-80
2022/07/21 03:57:56;;;;;;;1064.72;974.60;;;24.20;99.90;;;;;;5034296;28;20199;-78
2022/07/21 04:00:25;;;;;;;1067.38;976.97;;;24.10;99.90;;;;;;5023480;28;20665;-79
2022/07/21 04:02:52;;;;;;;1054.70;965.08;;;24.10;99.90;;;;;;5015613;28;20231;-79
2022/07/21 04:05:20;;;;;;;1048.13;959.03;;;24.10;99.90;;;;;;5028587;28;20203;-78
2022/07/21 04:07:48;;;;;;;1058.60;969.10;;;24.10;99.90;;;;;;5034791;28;20215;-79
2022/07/21 04:10:17;;;;;;;1049.78;960.60;;;24.10;99.90;;;;;;5041618;28;20487;-78
2022/07/21 04:12:46;;;;;;;1052.95;963.70;;;24.10;99.90;;;;;;5022467;28;20204;-79
2022/07/21 04:15:13;;;;;;;1048.18;958.95;;;24.00;99.90;;;;;;5037578;28;20191;-78
2022/07/21 04:17:41;;;;;;;1046.70;957.63;;;24.00;99.90;;;;;;5041755;28;20203;-79
2022/07/21 04:20:09;;;;;;;1063.53;974.05;;;24.00;99.90;;;;;;5023565;28;20215;-79
2022/07/21 04:22:37;;;;;;;1060.88;971.30;;;24.00;99.90;;;;;;5020010;28;20765;-79
2022/07/21 04:25:05;;;;;;;1053.68;964.60;;;24.00;99.90;;;;;;5037996;28;20206;-78
2022/07/21 04:27:32;;;;;;;1061.35;971.83;;;24.00;99.90;;;;;;5032932;28;20199;-79
2022/07/21 04:30:00;;;;;;;1058.35;968.80;;;24.00;99.90;;;;;;5028676;28;20196;-79
2022/07/21 04:32:27;;;;;;;1050.47;960.95;;;23.90;99.90;;;;;;5015637;28;20204;-78
2022/07/21 04:34:54;;;;;;;1054.50;964.97;;;23.90;99.90;;;;;;5040531;28;20203;-79
2022/07/21 04:37:21;;;;;;;1051.72;962.35;;;23.90;99.90;;;;;;5032212;28;20570;-79
2022/07/21 04:39:48;;;;;;;1046.22;957.13;;;23.90;99.90;;;;;;5029263;28;20695;-78
2022/07/21 04:42:15;;;;;;;1049.15;959.83;;;23.90;99.90;;;;;;5032370;28;20195;-79
2022/07/21 04:44:42;;;;;;;1041.28;952.05;;;23.90;99.90;;;;;;5019965;28;20519;-79
2022/07/21 04:47:10;;;;;;;1055.70;965.97;;;23.90;99.90;;;;;;5036080;28;20210;-79
2022/07/21 04:49:37;;;;;;;1051.68;962.13;;;23.90;99.90;;;;;;5032926;28;20594;-80
2022/07/21 04:52:04;;;;;;;1052.40;963.03;;;23.80;99.90;;;;;;5032763;28;20210;-79
2022/07/21 04:54:30;;;;;;;1057.68;967.83;;;23.80;99.90;;;;;;5030631;28;20197;-79
2022/07/21 04:56:57;;;;;;;1050.93;961.42;;;23.80;99.90;;;;;;5044390;28;20203;-79
2022/07/21 04:59:24;;;;;;;1047.80;958.38;;;23.80;99.90;;;;;;5032757;28;20195;-78
2022/07/21 05:01:51;;;;;;;1051.53;962.00;;;23.80;99.90;;;;;;5038312;28;20223;-79
2022/07/21 05:04:19;;;;;;;1036.82;948.30;;;23.80;99.90;;;;;;5023258;28;20208;-78
2022/07/21 05:06:46;;;;;;;1038.97;949.75;;;23.80;99.90;;;;;;5026346;28;20615;-78
2022/07/21 05:09:13;;;;;;;1044.15;954.72;;;23.80;99.90;;;;;;5032566;28;20230;-78
2022/07/21 05:11:39;;;;;;;1041.88;952.67;;;23.80;99.90;;;;;;5030378;28;20200;-79
2022/07/21 05:14:07;;;;;;;1052.38;963.05;;;23.70;99.90;;;;;;5031960;28;20562;-78
2022/07/21 05:16:34;;;;;;;1051.72;961.95;;;23.70;99.90;;;;;;5037063;28;20238;-79
2022/07/21 05:19:00;;;;;;;1043.82;954.55;;;23.70;99.90;;;;;;5043046;28;20565;-78
2022/07/21 05:21:29;;;;;;;1044.15;955.03;;;23.70;99.90;;;;;;5035878;28;20213;-79
2022/07/21 05:23:56;;;;;;;1043.65;954.33;;;23.70;99.90;;;;;;5040799;28;20192;-81
2022/07/21 05:26:23;;;;;;;1032.55;943.63;;;23.70;99.90;;;;;;5027772;28;20712;-79
2022/07/21 05:28:50;;;;;;;1041.00;951.78;;;23.70;99.90;;;;;;5040411;28;20226;-78
2022/07/21 05:31:17;;;;;;;1040.10;950.75;;;23.70;99.90;;;;;;5041179;28;20670;-79
2022/07/21 05:33:44;;;;;;;1035.75;946.70;;;23.70;99.90;;;;;;5030253;28;20210;-78
2022/07/21 05:36:10;;;;;;;1041.80;952.75;;;23.60;99.90;;;;;;5032860;28;20213;-79
2022/07/21 05:38:39;;;;;;;1043.82;954.80;;;23.60;99.90;;;;;;5034575;28;20203;-78
2022/07/21 05:41:06;;;;;;;1053.00;963.38;;;23.60;99.90;;;;;;5038250;28;20202;-78
2022/07/21 05:43:33;;;;;;;1038.18;949.30;;;23.70;99.90;;;;;;5027662;28;20204;-78
2022/07/21 05:46:00;;;;;;;1050.63;961.25;;;23.70;99.90;;;;;;5041769;28;20195;-79
2022/07/21 05:48:26;;;;;;;1041.65;952.55;;;23.80;99.90;;;;;;5018570;28;20216;-78
2022/07/21 05:50:53;;;;;;;1035.68;946.83;;;23.90;99.90;;;;;;5032038;28;20200;-79
2022/07/21 05:53:20;;;;;;;1062.53;972.78;;;24.00;99.90;;;;;;5038017;28;20191;-79
2022/07/21 05:55:48;;;;;;;1062.50;972.30;;;24.20;99.90;;;;;;5030909;28;20340;-79
2022/07/21 05:58:15;;;;;;;1053.97;964.50;;;24.30;99.90;;;;;;5023474;28;20196;-79
2022/07/21 06:00:42;;;;;;;1056.53;966.95;;;24.40;99.90;;;;;;5035133;28;20196;-77
2022/07/21 06:03:09;;;;;;;1064.65;974.67;;;24.40;99.90;;;;;;5022385;28;20701;-78
2022/07/21 06:05:37;;;;;;;1056.97;967.45;;;24.40;99.90;;;;;;5034632;28;20207;-76
2022/07/21 06:08:04;;;;;;;1059.57;969.88;;;24.30;99.90;;;;;;5034450;28;20199;-76
2022/07/21 06:10:31;;;;;;;1049.00;959.65;;;24.20;99.90;;;;;;5039518;28;20662;-78
2022/07/21 06:12:59;;;;;;;1063.05;973.35;;;24.10;99.90;;;;;;5034889;28;20199;-77
2022/07/21 06:15:25;;;;;;;1044.47;955.17;;;24.10;99.90;;;;;;5037021;28;20199;-79
2022/07/21 06:17:52;;;;;;;1070.65;980.40;;;24.00;99.90;;;;;;5028184;28;20204;-75
2022/07/21 06:20:19;;;;;;;1049.05;959.63;;;23.90;99.90;;;;;;5029691;28;20206;-76
2022/07/21 06:22:46;;;;;;;1038.55;949.63;;;23.90;99.90;;;;;;5023161;28;20529;-76
2022/07/21 06:25:13;;;;;;;1055.82;966.40;;;23.80;99.90;;;;;;5043743;28;20203;-77
2022/07/21 06:27:40;;;;;;;1045.13;956.13;;;23.80;99.90;;;;;;5032323;28;20203;-77
2022/07/21 06:30:09;;;;;;;1037.97;949.20;;;23.80;99.90;;;;;;5042135;28;20570;-78
2022/07/21 06:32:36;;;;;;;1048.63;958.92;;;23.80;99.90;;;;;;5033988;28;20200;-77
2022/07/21 06:35:03;;;;;;;1043.03;953.83;;;23.70;99.90;;;;;;5032532;28;20215;-78
2022/07/21 06:37:30;;;;;;;1049.07;959.85;;;23.70;99.90;;;;;;5025605;28;20551;-76
2022/07/21 06:39:56;;;;;;;1026.05;937.58;;;23.70;99.90;;;;;;5024699;28;20203;-76
2022/07/21 06:42:23;;;;;;;1052.95;963.42;;;23.80;99.90;;;;;;5031219;28;20199;-77
2022/07/21 06:44:50;;;;;;;1043.20;954.28;;;23.80;99.90;;;;;;5043787;28;20195;-76
2022/07/21 06:47:18;;;;;;;1058.65;968.97;;;24.00;99.90;;;;;;5029156;28;20202;-77
2022/07/21 06:49:45;;;;;;;1053.30;963.92;;;24.10;99.90;;;;;;5026517;28;20208;-77
2022/07/21 06:52:11;;;;;;;1060.82;971.20;;;24.20;99.90;;;;;;5017652;28;20196;-76
2022/07/21 06:54:39;;;;;;;1070.07;980.22;;;24.50;99.90;;;;;;5026152;28;20286;-77
2022/07/21 06:57:06;;;;;;;1079.50;989.00;;;24.80;99.90;;;;;;5028880;28;20227;-75
2022/07/21 06:59:33;;;;;;;1077.80;987.63;;;25.00;99.90;;;;;;5016666;28;20258;-76
2022/07/21 07:02:01;;;;;;;1086.20;994.13;;;25.10;99.90;;;;;;5025886;28;20242;-75
2022/07/21 07:04:29;;;;;;;1083.90;992.60;;;25.10;99.90;;;;;;5025545;28;20210;-76
2022/07/21 07:06:56;;;;;;;1086.10;994.45;;;25.10;99.90;;;;;;5027165;28;20193;-76
2022/07/21 07:09:23;;;;;;;1080.05;989.53;;;25.00;99.90;;;;;;5046217;28;20677;-78
2022/07/21 07:11:51;;;;;;;1073.57;983.30;;;24.90;99.90;;;;;;5035908;28;20206;-78
2022/07/21 07:14:18;;;;;;;1067.38;977.08;;;24.80;99.90;;;;;;5049246;28;20238;-78
2022/07/21 07:16:46;;;;;;;1069.18;979.25;;;24.60;99.90;;;;;;5037528;28;20203;-76
2022/07/21 07:19:12;;;;;;;1062.97;973.15;;;24.50;99.90;;;;;;5045586;28;20202;-77
2022/07/21 07:21:40;;;;;;;1062.90;973.08;;;24.50;99.90;;;;;;5028318;28;20203;-76
2022/07/21 07:24:07;;;;;;;1060.70;970.92;;;24.40;99.90;;;;;;5039121;28;20659;-76
2022/07/21 07:26:34;;;;;;;1068.07;978.33;;;24.30;99.90;;;;;;5031152;28;20204;-76
2022/07/21 07:29:01;;;;;;;1059.40;969.88;;;24.30;99.90;;;;;;5044590;28;20215;-75
2022/07/21 07:31:27;;;;;;;1051.93;962.50;;;24.20;99.90;;;;;;5033675;28;20203;-76
2022/07/21 07:33:56;;;;;;;1056.18;966.75;;;24.20;99.90;;;;;;5038759;28;20199;-75
2022/07/21 07:36:23;;;;;;;1055.55;965.92;;;24.20;99.90;;;;;;5022472;28;20296;-78
2022/07/21 07:38:51;;;;;;;1046.20;957.08;;;24.10;99.90;;;;;;5016381;28;20196;-76
2022/07/21 07:41:18;;;;;;;1058.32;968.92;;;24.10;99.90;;;;;;5038621;28;20203;-77
2022/07/21 07:43:45;;;;;;;1048.72;959.40;;;24.20;99.90;;;;;;5027443;28;20193;-76
2022/07/21 07:46:12;;;;;;;1061.82;972.28;;;24.20;99.90;;;;;;5037904;28;20202;-78
2022/07/21 07:48:40;;;;;;;1057.43;968.10;;;24.20;99.90;;;;;;5026535;28;20205;-75
2022/07/21 07:51:07;;;;;;;1055.20;965.80;;;24.20;99.90;;;;;;5035352;28;20203;-77
2022/07/21 07:53:33;;;;;;;1052.15;962.85;;;24.20;99.90;;;;;;5034573;28;20199;-77
2022/07/21 07:56:02;;;;;;;1058.30;969.00;;;24.20;99.90;;;;;;5031566;28;20197;-77
2022/07/21 07:58:29;;;;;;;1050.38;961.22;;;24.20;99.90;;;;;;5014598;28;20204;-77
2022/07/21 08:00:56;;;;;;;1056.75;967.63;;;24.20;99.90;;;;;;5019599;28;20200;-76
2022/07/21 08:03:23;;;;;;;1049.60;960.28;;;24.20;99.90;;;;;;5035984;28;20220;-76
2022/07/21 08:05:50;;;;;;;1048.00;959.17;;;24.10;99.90;;;;;;5040464;28;20640;-76
2022/07/21 08:08:18;;;;;;;1054.72;965.25;;;24.10;99.90;;;;;;5040683;28;20289;-79
2022/07/21 08:10:45;;;;;;;1046.60;957.47;;;24.10;99.90;;;;;;5023626;28;20223;-79
2022/07/21 08:13:15;;;;;;;1057.60;968.20;;;24.10;99.90;;;;;;5014884;28;20204;-80
2022/07/21 08:15:43;;;;;;;1058.88;969.35;;;24.00;99.90;;;;;;5033731;28;20451;-79
2022/07/21 08:18:09;;;;;;;1045.80;956.75;;;24.00;99.90;;;;;;5045804;28;20558;-79
2022/07/21 08:20:38;;;;;;;1043.38;954.25;;;24.10;99.90;;;;;;5023877;28;20200;-79
2022/07/21 08:23:05;;;;;;;1046.40;957.40;;;24.10;99.90;;;;;;5028252;28;20188;-79
2022/07/21 08:25:33;;;;;;;1053.47;964.22;;;24.10;99.90;;;;;;5042753;28;20213;-79
2022/07/21 08:27:59;;;;;;;1050.78;961.38;;;24.10;99.90;;;;;;5029879;28;20195;-80
2022/07/21 08:30:28;;;;;;;1045.78;956.85;;;24.10;99.90;;;;;;5031817;28;20222;-79
2022/07/21 08:32:54;;;;;;;1056.78;967.40;;;24.10;99.90;;;;;;5050125;28;20196;-79
2022/07/21 08:35:21;;;;;;;1041.68;953.22;;;24.10;99.90;;;;;;5040677;28;20225;-79
2022/07/21 08:37:55;;;;;;;1055.00;965.65;;;24.00;99.90;;;;;;5034834;28;20201;-80
2022/07/21 08:40:25;;;;;;;1037.88;949.28;;;24.00;99.90;;;;;;5022882;28;20274;-79
2022/07/21 08:42:52;;;;;;;1056.53;967.40;;;24.00;99.90;;;;;;5028425;28;20200;-79
2022/07/21 08:45:19;;;;;;;1046.63;957.97;;;24.00;99.90;;;;;;5038352;28;20195;-80
2022/07/21 08:47:47;;;;;;;1045.20;956.17;;;24.00;99.90;;;;;;5032536;28;20679;-79
2022/07/21 08:50:14;;;;;;;1045.88;956.97;;;24.00;99.90;;;;;;5035215;28;20307;-79
2022/07/21 08:52:41;;;;;;;1037.20;948.78;;;24.00;99.90;;;;;;5035444;28;20206;-79
2022/07/21 08:55:08;;;;;;;1040.45;951.58;;;24.00;99.90;;;;;;5041534;28;20195;-80
2022/07/21 08:57:34;;;;;;;1046.82;957.67;;;24.00;99.90;;;;;;5037036;28;20204;-79
2022/07/21 09:00:01;;;;;;;1036.97;948.30;;;24.00;99.90;;;;;;5040243;28;20207;-79
2022/07/21 09:02:30;;;;;;;1040.88;951.70;;;24.00;99.90;;;;;;5022044;28;20595;-79
2022/07/21 09:04:59;;;;;;;1039.95;951.42;;;24.10;99.90;;;;;;5026639;28;20290;-79
2022/07/21 09:07:26;;;;;;;1048.53;959.25;;;24.10;99.90;;;;;;5036529;28;20196;-80
2022/07/21 09:09:57;;;;;;;1043.03;953.90;;;24.10;99.90;;;;;;5033124;28;20690;-79
2022/07/21 09:12:24;;;;;;;1057.32;967.83;;;24.20;99.90;;;;;;5025010;28;20204;-79
2022/07/21 09:14:51;;;;;;;1056.55;967.53;;;24.20;99.90;;;;;;5039282;28;20575;-78
2022/07/21 09:17:19;;;;;;;1043.82;954.80;;;24.20;99.90;;;;;;5033425;28;20207;-79
2022/07/21 09:19:49;;;;;;;1056.30;967.13;;;24.20;99.90;;;;;;5031158;28;20192;-77
2022/07/21 09:22:19;;;;;;;1061.05;971.63;;;24.20;99.90;;;;;;5044677;28;20654;-80
2022/07/21 09:24:50;;;;;;;1059.38;970.10;;;24.20;99.90;;;;;;5018915;28;20200;-80
2022/07/21 09:27:18;;;;;;;1046.35;957.50;;;24.20;99.90;;;;;;5030136;28;20214;-80
2022/07/21 09:29:47;;;;;;;1050.88;961.95;;;24.20;99.90;;;;;;5031241;28;20220;-79
2022/07/21 09:32:17;;;;;;;1051.55;962.80;;;24.20;99.90;;;;;;5028525;28;20203;-80
2022/07/21 09:34:45;;;;;;;1064.53;974.95;;;24.20;99.90;;;;;;5029399;28;20196;-80
2022/07/21 09:37:12;;;;;;;1040.68;952.03;;;24.30;99.90;;;;;;5030555;28;20195;-79
2022/07/21 09:39:48;;;;;;;1052.35;963.28;;;24.30;99.90;;;;;;5031939;28;20207;-79
2022/07/21 09:42:23;;;;;;;1059.72;970.28;;;24.30;99.90;;;;;;5021979;28;20681;-80
2022/07/21 09:44:51;;;;;;;1052.35;963.35;;;24.40;99.90;;;;;;5039360;28;20199;-80
2022/07/21 09:47:29;;;;;;;1068.63;979.08;;;24.40;99.90;;;;;;5010953;28;20208;-80
2022/07/21 09:49:57;;;;;;;1069.10;979.55;;;24.40;99.90;;;;;;5037448;28;20273;-80
2022/07/21 09:52:27;;;;;;;1060.30;970.95;;;24.50;99.90;;;;;;5041997;28;20867;-80
2022/07/21 09:54:56;;;;;;;1056.38;967.22;;;24.50;99.90;;;;;;5017072;28;20218;-81
2022/07/21 09:57:23;;;;;;;1059.65;970.22;;;24.50;99.90;;;;;;5009583;28;20200;-79
2022/07/21 09:59:50;;;;;;;1063.13;973.42;;;24.50;99.90;;;;;;5016867;28;20201;-80
2022/07/21 10:02:20;;;;;;;1053.03;963.93;;;24.50;99.90;;;;;;5017692;28;20769;-80
2022/07/21 10:04:52;;;;;;;1071.75;981.53;;;24.50;99.90;;;;;;5020083;28;20485;-79
2022/07/21 10:07:20;;;;;;;1081.15;990.88;;;24.50;99.90;;;;;;5009805;28;20192;-79
2022/07/21 10:09:47;;;;;;;1075.82;985.75;;;24.50;99.90;;;;;;5021007;28;20778;-79
2022/07/21 10:12:15;;;;;;;1067.38;977.63;;;24.50;99.90;;;;;;5034470;28;20254;-78
2022/07/21 10:14:42;;;;;;;1081.68;991.28;;;24.50;99.90;;;;;;5020766;28;20203;-80
2022/07/21 10:17:09;;;;;;;1074.47;984.47;;;24.50;99.90;;;;;;5030862;28;20206;-79
2022/07/21 10:19:42;;;;;;;1066.30;976.67;;;24.50;99.90;;;;;;5023504;28;20196;-79
2022/07/21 10:22:20;;;;;;;1070.20;980.30;;;24.50;99.90;;;;;;5027792;28;20199;-80
2022/07/21 10:24:47;;;;;;;1062.47;973.25;;;24.60;99.90;;;;;;5038538;28;20555;-80
2022/07/21 10:27:15;;;;;;;1068.55;978.83;;;24.70;99.90;;;;;;5032467;28;20553;-79
2022/07/21 10:30:01;;;;;;;1081.88;990.75;;;24.70;99.90;;;;;;5014094;28;20242;-81
2022/07/21 10:32:30;;;;;;;1073.10;982.92;;;24.80;99.90;;;;;;5026607;28;20465;-80
2022/07/21 10:34:59;;;;;;;1077.28;987.08;;;24.90;99.90;;;;;;5026770;28;20215;-81
2022/07/21 10:37:46;;;;;;;1088.40;995.70;;;24.90;99.90;;;;;;5031864;28;20250;-79
2022/07/21 10:40:36;;;;;;;1088.60;995.85;;;25.00;99.90;;;;;;5025538;28;20309;-79
2022/07/21 10:43:42;;;;;;;1087.97;995.17;;;25.00;99.90;;;;;;5015555;28;20224;-80
2022/07/21 10:46:40;;;;;;;1079.88;989.45;;;25.10;99.90;;;;;;5019617;28;20211;-78
2022/07/21 10:49:08;;;;;;;1082.18;991.45;;;25.10;99.90;;;;;;5012540;28;20223;-78
2022/07/21 10:51:36;;;;;;;1081.40;990.83;;;25.10;99.90;;;;;;5038292;28;20226;-78
2022/07/21 10:54:20;;;;;;;1083.00;991.88;;;25.10;99.90;;;;;;5024320;28;20523;-78
2022/07/21 10:56:47;;;;;;;1074.60;984.30;;;25.10;99.90;;;;;;5011647;28;20285;-79
2022/07/21 10:59:16;;;;;;;1076.70;986.30;;;25.10;99.90;;;;;;5042636;28;20203;-79
2022/07/21 11:01:45;;;;;;;1084.27;993.27;;;25.10;99.90;;;;;;5018637;28;20988;-80
2022/07/21 11:04:16;;;;;;;1079.33;988.63;;;25.00;99.90;;;;;;5025547;28;20499;-79
2022/07/21 11:06:43;;;;;;;1078.10;987.95;;;25.00;99.90;;;;;;5029627;28;20487;-79
2022/07/21 11:09:14;;;;;;;1083.10;992.80;;;25.00;99.90;;;;;;5034949;28;20306;-80
2022/07/21 11:11:59;;;;;;;1081.57;991.10;;;25.00;99.90;;;;;;5034591;28;21014;-78
2022/07/21 11:14:37;;;;;;;1081.35;990.78;;;25.00;99.90;;;;;;5031280;28;20204;-78
2022/07/21 11:17:05;;;;;;;1086.85;994.80;;;25.00;99.90;;;;;;5018669;28;20286;-79
2022/07/21 11:19:45;;;;;;;1085.47;993.78;;;25.00;99.90;;;;;;5029605;28;20579;-80
2022/07/21 11:22:14;;;;;;;1080.38;989.95;;;25.00;99.90;;;;;;5016083;28;20291;-77
2022/07/21 11:24:42;;;;;;;1088.63;995.65;;;25.10;99.90;;;;;;5021135;28;20204;-80
2022/07/21 11:27:11;;;;;;;1086.63;994.60;;;25.10;99.90;;;;;;5023852;28;20200;-79
2022/07/21 11:29:39;;;;;;;1084.65;993.25;;;25.10;99.90;;;;;;5036755;28;20303;-78
2022/07/21 11:32:08;;;;;;;1086.57;993.67;;;25.10;99.90;;;;;;5033515;28;20221;-81
2022/07/21 11:34:43;;;;;;;1073.35;983.60;;;25.10;99.90;;;;;;5026683;28;20214;-79
2022/07/21 11:37:12;;;;;;;1078.57;988.27;;;25.10;99.90;;;;;;5029198;28;20559;-79
2022/07/21 11:39:39;;;;;;;1095.65;998.85;;;25.10;99.90;;;;;;5015862;28;20454;-79
2022/07/21 11:42:07;;;;;;;1092.15;997.65;;;25.10;99.90;;;;;;5025256;28;20196;-78
2022/07/21 11:44:36;;;;;;;1085.23;994.37;;;25.20;99.90;;;;;;5038045;28;20207;-79
2022/07/21 11:47:06;;;;;;;1080.80;990.15;;;25.20;99.90;;;;;;5035358;28;20459;-79
2022/07/21 11:49:34;;;;;;;1078.57;988.65;;;25.20;99.90;;;;;;5020758;28;20206;-79
2022/07/21 11:52:03;;;;;;;1087.20;995.17;;;25.20;99.90;;;;;;5028347;28;20217;-79
2022/07/21 11:54:33;;;;;;;1077.40;987.28;;;25.20;99.90;;;;;;5022186;28;20741;-80
2022/07/21 11:57:02;;;;;;;1083.27;992.93;;;25.20;99.90;;;;;;5022740;28;20202;-81
2022/07/21 11:59:30;;;;;;;1088.72;994.78;;;25.20;99.90;;;;;;5028313;28;20474;-79
2022/07/21 12:02:00;;;;;;;1084.78;993.25;;;25.10;99.90;;;;;;5026205;28;20250;-79
2022/07/21 12:04:28;;;;;;;1065.87;976.60;;;25.10;99.90;;;;;;5026903;28;20203;-80
2022/07/21 12:06:57;;;;;;;1076.07;985.85;;;25.10;99.90;;;;;;5022105;28;20448;-79